Accueil
METAR-TAF:

METAR-TAF

Aéroports :

Thulé, Groenland

Base aérienne de Thulé

latitude: 76-32N, longitude: 068-42W, altitude: 77 m

Observation

Le bulletin a été fait il y a 53 minutes, à 15:58 UTC
Vent 4 kt de ouest/nord-ouest
Température 7°C
Humidité 57%
Pression 999 hPa
Visibilité 10 km ou plus
Ciel clair

METAR: BGTL 221558Z AUTO 30004KT 9999 CLR 07/M01 A2949 RMK AO2 SLP970 T00691011

Heure: 13:51 (16:51 UTC)

Prévision

Le bulletin a été fait il y a 7 heures et 51 minutes, à 09:00 UTC
Prévision valable du 22 à 09 UTC au 23 à 15 UTC
Vent 6 kt de est/sud-est
Visibilité 10 km ou plus
Quelques nuages à une hauteur de 25000 ft

TAF: BGTL 220900Z 2209/2315 11006KT 9999 FEW250 QNH2953INS TX07/2218Z TNM01/2210Z

Observations et prévisions météorologiques de plus de 4000 aéroports (messages METAR et TAF).

Les stations disponibles sont représentées par des disques jaunes et rouges sur la carte.

Passer la souris dessus pour voir le nom de la station.

Cliquer dessus pour voir les observations et prévisions météorologiques.

Pour changer de carte: cliquez sur les boutons verts avec une croix noire pour zoomer, sur le bouton vert avec un tiret pour effectuer un zoom arrière, ou sur les flèches vertes pour les cartes adjacentes.


METAR-TAF: